createdAt,value
2023-04-26T00:01:17.616Z,7.50
2023-04-26T00:04:25.989Z,6.90
2023-04-26T00:07:35.249Z,8.10
2023-04-26T00:10:42.820Z,12.10
2023-04-26T00:13:51.544Z,11.90
2023-04-26T00:17:01.008Z,10.30
2023-04-26T00:20:09.028Z,10.80
2023-04-26T00:23:17.366Z,6.60
2023-04-26T00:26:24.991Z,6.20
2023-04-26T00:29:34.954Z,12.10
2023-04-26T00:32:43.310Z,8.60
2023-04-26T00:35:50.912Z,8.40
2023-04-26T00:39:00.780Z,12.60
2023-04-26T00:42:09.094Z,16.20
2023-04-26T00:45:16.772Z,13.30
2023-04-26T00:48:26.767Z,9.30
2023-04-26T00:51:35.152Z,13.00
2023-04-26T00:54:43.005Z,11.20
2023-04-26T00:57:52.888Z,9.50
2023-04-26T01:01:01.058Z,7.50
2023-04-26T01:04:09.398Z,11.70
2023-04-26T01:07:17.839Z,11.00
2023-04-26T01:10:27.332Z,9.70
2023-04-26T01:13:35.443Z,15.80
2023-04-26T01:16:43.568Z,10.10
2023-04-26T01:19:53.239Z,7.70
2023-04-26T01:23:01.431Z,12.60
2023-04-26T01:26:09.196Z,9.00
2023-04-26T01:29:18.913Z,11.30
2023-04-26T01:32:26.944Z,8.20
2023-04-26T01:35:34.589Z,8.30
2023-04-26T01:38:44.711Z,8.10
2023-04-26T01:41:53.465Z,12.60
2023-04-26T01:45:01.109Z,10.70
2023-04-26T01:48:10.992Z,8.70
2023-04-26T01:51:19.000Z,8.40
2023-04-26T01:54:27.103Z,12.50
2023-04-26T01:57:35.489Z,10.50
2023-04-26T02:00:44.857Z,12.20
2023-04-26T02:03:52.854Z,9.60
2023-04-26T02:07:01.314Z,12.00
2023-04-26T02:10:10.769Z,13.50
2023-04-26T02:13:18.803Z,11.10
2023-04-26T02:16:26.806Z,11.30
2023-04-26T02:19:36.267Z,11.40
2023-04-26T02:22:44.220Z,8.20
2023-04-26T02:25:52.142Z,15.70
2023-04-26T02:29:01.615Z,11.20
2023-04-26T02:32:09.654Z,16.00
2023-04-26T02:35:17.354Z,11.70
2023-04-26T02:38:25.764Z,12.80
2023-04-26T02:41:35.420Z,14.00
2023-04-26T02:44:43.095Z,7.90
2023-04-26T02:47:51.834Z,8.10
2023-04-26T02:51:01.025Z,14.20
2023-04-26T02:54:08.864Z,10.70
2023-04-26T02:57:17.418Z,10.60
2023-04-26T03:00:27.215Z,17.20
2023-04-26T03:03:35.086Z,15.00
2023-04-26T03:06:43.514Z,11.70
2023-04-26T03:09:53.184Z,15.80
2023-04-26T03:13:01.403Z,15.60
2023-04-26T03:16:09.947Z,15.60
2023-04-26T03:19:19.429Z,10.90
2023-04-26T03:22:27.561Z,9.30
2023-04-26T03:25:36.082Z,10.30
2023-04-26T03:28:44.335Z,16.80
2023-04-26T03:31:54.075Z,14.50
2023-04-26T03:35:02.796Z,13.70
2023-04-26T03:38:11.062Z,10.10
2023-04-26T03:41:20.308Z,12.50
2023-04-26T03:44:30.532Z,14.70
2023-04-26T03:47:39.341Z,10.80
2023-04-26T03:50:48.692Z,10.00
2023-04-26T03:53:56.699Z,13.20
2023-04-26T03:57:05.317Z,13.60
2023-04-26T04:00:14.337Z,9.50
2023-04-26T04:03:23.071Z,16.10
2023-04-26T04:06:31.487Z,14.60
2023-04-26T04:09:39.862Z,13.50
2023-04-26T04:12:49.325Z,9.80
2023-04-26T04:15:57.603Z,13.30
2023-04-26T04:19:05.660Z,14.40
2023-04-26T04:22:15.246Z,12.70
2023-04-26T04:25:23.196Z,8.40
2023-04-26T04:28:31.382Z,10.60
2023-04-26T04:31:40.797Z,10.60
2023-04-26T04:34:49.642Z,11.80
2023-04-26T04:37:57.762Z,9.50
2023-04-26T04:41:07.118Z,10.70
2023-04-26T04:44:15.095Z,9.90
2023-04-26T04:47:23.390Z,7.40
2023-04-26T04:50:33.529Z,9.30
2023-04-26T04:53:41.961Z,12.30
2023-04-26T04:56:50.183Z,12.50
2023-04-26T04:59:58.388Z,9.40
2023-04-26T05:03:08.609Z,9.70
2023-04-26T05:06:16.901Z,10.90
2023-04-26T05:09:24.431Z,10.80
2023-04-26T05:12:34.093Z,8.50
2023-04-26T05:15:42.230Z,9.00
2023-04-26T05:18:49.663Z,11.10
2023-04-26T05:21:59.294Z,12.60
2023-04-26T05:25:07.194Z,9.60
2023-04-26T05:28:15.018Z,10.00
2023-04-26T05:31:24.766Z,9.00
2023-04-26T05:34:32.957Z,9.80
2023-04-26T05:37:40.984Z,9.00
2023-04-26T05:40:49.342Z,9.10
2023-04-26T05:43:58.523Z,13.10
2023-04-26T05:47:06.358Z,7.70
2023-04-26T05:50:14.056Z,13.90
2023-04-26T05:53:23.559Z,12.10
2023-04-26T05:56:31.457Z,7.70
2023-04-26T05:59:39.409Z,11.00
2023-04-26T06:02:49.057Z,8.70
2023-04-26T06:05:57.333Z,13.00
2023-04-26T06:09:05.374Z,9.00
2023-04-26T06:12:15.240Z,10.80
2023-04-26T06:15:23.274Z,10.80
2023-04-26T06:18:30.861Z,9.50
2023-04-26T06:21:40.471Z,10.50
2023-04-26T06:24:48.427Z,11.80
2023-04-26T06:27:56.437Z,11.70
2023-04-26T06:31:04.671Z,11.40
2023-04-26T06:37:21.811Z,9.80
2023-04-26T06:40:30.192Z,10.40
2023-04-26T06:43:39.597Z,10.80
2023-04-26T06:46:47.620Z,13.30
2023-04-26T06:49:55.646Z,10.60
2023-04-26T06:53:04.896Z,11.80
2023-04-26T06:56:12.882Z,7.70
2023-04-26T06:59:20.721Z,14.10
2023-04-26T07:02:30.733Z,10.70
2023-04-26T07:05:38.823Z,12.10
2023-04-26T07:08:46.589Z,10.50
2023-04-26T07:11:54.909Z,9.60
2023-04-26T07:15:04.538Z,12.20
2023-04-26T07:18:12.286Z,10.90
2023-04-26T07:21:20.320Z,8.90
2023-04-26T07:24:29.479Z,12.30
2023-04-26T07:27:37.307Z,9.10
2023-04-26T07:30:45.725Z,10.60
2023-04-26T07:33:55.437Z,10.50
2023-04-26T07:37:03.836Z,7.70
2023-04-26T07:40:12.142Z,8.90
2023-04-26T07:43:21.728Z,11.70
2023-04-26T07:46:29.954Z,10.80
2023-04-26T07:49:38.362Z,8.10
2023-04-26T07:52:47.917Z,9.70
2023-04-26T07:55:55.865Z,10.20
2023-04-26T07:59:03.499Z,8.80
2023-04-26T08:02:12.193Z,13.90
2023-04-26T08:05:22.251Z,9.70
2023-04-26T08:08:29.920Z,8.30
2023-04-26T08:11:38.214Z,8.90
2023-04-26T08:14:47.580Z,10.90
2023-04-26T08:17:55.822Z,10.70
2023-04-26T08:21:03.357Z,7.60
2023-04-26T08:24:13.475Z,7.70
2023-04-26T08:27:21.407Z,9.00
2023-04-26T08:30:29.260Z,6.90
2023-04-26T08:33:38.491Z,7.00
2023-04-26T08:36:46.550Z,7.70
2023-04-26T08:39:54.172Z,7.90
2023-04-26T08:43:03.731Z,6.00
2023-04-26T08:46:12.773Z,6.00
2023-04-26T08:49:21.254Z,9.50
2023-04-26T08:52:29.539Z,6.50
2023-04-26T08:55:39.029Z,8.30
2023-04-26T08:58:47.569Z,6.50
2023-04-26T09:01:55.377Z,8.80
2023-04-26T09:05:05.592Z,6.30
2023-04-26T09:08:13.501Z,6.90
2023-04-26T09:11:21.571Z,5.30
2023-04-26T09:14:31.072Z,5.50
2023-04-26T09:17:39.554Z,4.80
2023-04-26T09:20:47.189Z,6.80
2023-04-26T09:23:58.468Z,4.60
2023-04-26T09:27:06.189Z,6.20
2023-04-26T09:30:14.845Z,5.80
2023-04-26T09:33:23.135Z,6.80
2023-04-26T09:36:32.510Z,5.70
2023-04-26T09:39:40.987Z,4.90
2023-04-26T09:42:49.522Z,7.40
2023-04-26T09:45:58.644Z,7.00
2023-04-26T09:49:07.437Z,3.60
2023-04-26T09:52:15.106Z,8.40
2023-04-26T09:58:28.690Z,6.00
2023-04-26T10:01:37.082Z,4.80
2023-04-26T10:04:46.848Z,4.90
2023-04-26T10:07:54.674Z,6.70
2023-04-26T10:11:02.753Z,4.20
2023-04-26T10:14:10.834Z,4.20
2023-04-26T10:17:20.812Z,7.10
2023-04-26T10:20:29.498Z,3.60
2023-04-26T10:23:38.154Z,5.00
2023-04-26T10:26:47.798Z,5.10
2023-04-26T10:29:55.612Z,3.40
2023-04-26T10:33:04.504Z,5.30
2023-04-26T10:36:13.546Z,6.10
2023-04-26T10:39:22.984Z,5.10
2023-04-26T10:42:31.178Z,3.70
2023-04-26T10:45:40.765Z,3.70
2023-04-26T10:48:49.171Z,4.60
2023-04-26T10:51:57.325Z,4.70
2023-04-26T10:55:07.495Z,2.90
2023-04-26T10:58:15.483Z,3.60
2023-04-26T11:01:25.124Z,3.80
2023-04-26T11:04:32.864Z,4.90
2023-04-26T11:07:42.262Z,6.00
2023-04-26T11:10:50.858Z,6.40
2023-04-26T11:13:58.814Z,5.00
2023-04-26T11:17:07.836Z,4.50
2023-04-26T11:20:16.152Z,4.60
2023-04-26T11:23:25.802Z,3.20
2023-04-26T11:26:34.916Z,8.90
2023-04-26T11:29:42.476Z,6.30
2023-04-26T11:32:50.802Z,4.00
2023-04-26T11:36:00.711Z,3.30
2023-04-26T11:39:08.177Z,6.60
2023-04-26T11:42:16.577Z,3.20
2023-04-26T11:45:24.357Z,4.70
2023-04-26T11:48:33.692Z,5.10
2023-04-26T11:51:41.930Z,6.60
2023-04-26T11:54:49.765Z,4.80
2023-04-26T11:57:59.183Z,6.10
2023-04-26T12:01:07.598Z,3.80
2023-04-26T12:04:15.908Z,2.30
2023-04-26T12:07:25.152Z,5.80
2023-04-26T12:10:33.011Z,4.90
2023-04-26T12:13:41.213Z,4.90
2023-04-26T12:16:50.404Z,3.80
2023-04-26T12:19:58.145Z,3.90
2023-04-26T12:23:06.560Z,2.80
2023-04-26T12:26:15.806Z,3.00
2023-04-26T12:29:23.813Z,3.80
2023-04-26T12:32:32.059Z,3.40
2023-04-26T12:35:39.554Z,3.30
2023-04-26T12:38:49.055Z,3.40
2023-04-26T12:41:57.173Z,5.60
2023-04-26T12:45:04.756Z,3.60
2023-04-26T12:48:14.439Z,2.50
2023-04-26T12:51:23.131Z,3.80
2023-04-26T12:54:30.659Z,4.10
2023-04-26T12:57:40.382Z,3.00
2023-04-26T13:00:48.018Z,3.50
2023-04-26T13:03:56.187Z,3.60
2023-04-26T13:07:05.543Z,2.20
2023-04-26T13:10:13.485Z,4.70
2023-04-26T13:13:26.270Z,5.90
2023-04-26T13:16:26.416Z,4.60
2023-04-26T13:19:35.635Z,7.10
2023-04-26T13:22:43.753Z,4.30
2023-04-26T13:25:52.176Z,4.70
2023-04-26T13:29:01.687Z,4.60
2023-04-26T13:32:09.624Z,3.60
2023-04-26T13:35:17.144Z,5.10
2023-04-26T13:38:27.172Z,3.40
2023-04-26T13:41:35.639Z,5.00
2023-04-26T13:44:43.275Z,3.90
2023-04-26T13:47:52.857Z,5.50
2023-04-26T13:51:01.191Z,4.40
2023-04-26T13:54:08.804Z,8.20
2023-04-26T13:57:17.222Z,6.00
2023-04-26T14:00:26.700Z,6.20
2023-04-26T14:03:34.756Z,4.30
2023-04-26T14:06:43.163Z,3.80
2023-04-26T14:09:51.655Z,4.30
2023-04-26T14:12:59.073Z,8.80
2023-04-26T14:16:06.766Z,5.80
2023-04-26T14:19:15.672Z,5.60
2023-04-26T14:22:22.838Z,4.60
2023-04-26T14:25:29.950Z,4.70
2023-04-26T14:28:38.742Z,3.50
2023-04-26T14:31:46.455Z,3.30
2023-04-26T14:34:53.751Z,3.80
2023-04-26T14:38:02.585Z,6.10
2023-04-26T14:41:10.065Z,7.20
2023-04-26T14:44:17.043Z,5.60
2023-04-26T14:47:24.413Z,5.30
2023-04-26T14:50:33.808Z,3.80
2023-04-26T14:53:41.314Z,6.10
2023-04-26T14:56:49.095Z,3.70
2023-04-26T14:59:58.376Z,6.00
2023-04-26T15:03:06.167Z,4.40
2023-04-26T15:06:13.961Z,3.50
2023-04-26T15:09:23.289Z,3.50
2023-04-26T15:12:30.359Z,3.70
2023-04-26T15:15:38.197Z,2.60
2023-04-26T15:18:47.143Z,2.40
2023-04-26T15:21:54.730Z,4.10
2023-04-26T15:25:02.726Z,4.40
2023-04-26T15:28:10.171Z,2.30
2023-04-26T15:31:19.185Z,4.00
2023-04-26T15:34:26.537Z,4.10
2023-04-26T15:37:33.995Z,6.20
2023-04-26T15:40:42.837Z,5.60
2023-04-26T15:43:50.047Z,3.50
2023-04-26T15:46:57.645Z,3.40
2023-04-26T15:50:07.068Z,3.50
2023-04-26T15:53:14.237Z,2.50
2023-04-26T15:56:22.034Z,5.70
2023-04-26T15:59:30.749Z,5.50
2023-04-26T16:02:37.955Z,6.00
2023-04-26T16:05:45.852Z,4.60
2023-04-26T16:08:53.787Z,6.40
2023-04-26T16:12:02.412Z,6.10
2023-04-26T16:15:09.819Z,7.30
2023-04-26T16:18:17.403Z,3.80
2023-04-26T16:21:26.366Z,6.40
2023-04-26T16:24:34.389Z,4.60
2023-04-26T16:27:42.082Z,7.40
2023-04-26T16:30:50.979Z,6.20
2023-04-26T16:33:58.875Z,5.40
2023-04-26T16:37:06.066Z,4.20
2023-04-26T16:40:15.075Z,4.70
2023-04-26T16:43:22.535Z,2.70
2023-04-26T16:46:30.527Z,4.60
2023-04-26T16:49:38.202Z,5.80
2023-04-26T16:52:38.625Z,7.10
2023-04-26T16:55:46.908Z,5.20
2023-04-26T16:58:54.632Z,7.10
2023-04-26T17:02:03.378Z,3.60
2023-04-26T17:05:11.267Z,4.80
2023-04-26T17:08:20.946Z,5.80
2023-04-26T17:11:29.585Z,8.10
2023-04-26T17:14:38.095Z,8.40
2023-04-26T17:17:46.144Z,5.50
2023-04-26T17:20:55.160Z,5.40
2023-04-26T17:24:03.026Z,3.90
2023-04-26T17:27:10.256Z,7.20
2023-04-26T17:30:17.908Z,5.20
2023-04-26T17:33:27.139Z,4.70
2023-04-26T17:36:34.656Z,7.70
2023-04-26T17:39:42.035Z,4.30
2023-04-26T17:42:51.489Z,8.30
2023-04-26T17:45:59.017Z,5.00
2023-04-26T17:49:06.745Z,7.60
2023-04-26T17:52:16.267Z,6.60
2023-04-26T17:55:23.441Z,6.50
2023-04-26T17:58:31.131Z,4.90
2023-04-26T18:01:40.198Z,4.40
2023-04-26T18:04:49.465Z,4.80
2023-04-26T18:07:56.874Z,4.00
2023-04-26T18:11:05.426Z,3.80
2023-04-26T18:14:13.676Z,4.00
2023-04-26T18:17:22.292Z,7.30
2023-04-26T18:20:29.530Z,9.00
2023-04-26T18:23:38.602Z,4.90
2023-04-26T18:26:46.523Z,5.70
2023-04-26T18:29:53.560Z,9.10
2023-04-26T18:33:02.834Z,5.90
2023-04-26T18:36:10.133Z,9.00
2023-04-26T18:39:17.422Z,6.50
2023-04-26T18:42:26.738Z,7.70
2023-04-26T18:45:34.364Z,11.60
2023-04-26T18:48:41.806Z,5.70
2023-04-26T18:51:51.138Z,5.70
2023-04-26T18:54:58.778Z,6.70
2023-04-26T18:58:06.322Z,7.00
2023-04-26T19:01:13.697Z,5.40
2023-04-26T19:04:22.781Z,14.60
2023-04-26T19:07:30.229Z,9.40
2023-04-26T19:10:37.669Z,4.50
2023-04-26T19:13:46.929Z,7.70
2023-04-26T19:16:54.598Z,6.70
2023-04-26T19:20:01.984Z,9.50
2023-04-26T19:23:11.019Z,5.00
2023-04-26T19:26:18.419Z,6.50
2023-04-26T19:29:28.915Z,5.40
2023-04-26T19:32:38.231Z,6.30
2023-04-26T19:35:46.328Z,7.80
2023-04-26T19:38:53.806Z,8.20
2023-04-26T19:42:01.911Z,8.80
2023-04-26T19:45:10.714Z,6.00
2023-04-26T19:48:18.782Z,5.90
2023-04-26T19:51:26.333Z,8.30
2023-04-26T19:54:35.482Z,5.90
2023-04-26T19:57:43.028Z,9.00
2023-04-26T20:00:50.442Z,8.60
2023-04-26T20:03:59.870Z,9.00
2023-04-26T20:07:07.184Z,7.90
2023-04-26T20:10:14.681Z,8.80
2023-04-26T20:13:23.887Z,7.70
2023-04-26T20:15:33.841Z,8.20
2023-04-26T20:18:43.107Z,8.50
2023-04-26T20:21:50.820Z,6.50
2023-04-26T20:24:59.632Z,5.80
2023-04-26T20:26:47.451Z,7.40
2023-04-26T20:29:54.657Z,9.20
2023-04-26T20:33:04.038Z,10.30
2023-04-26T20:36:11.784Z,8.20
2023-04-26T20:39:18.848Z,8.80
2023-04-26T20:42:26.494Z,7.20
2023-04-26T20:45:35.326Z,6.40
2023-04-26T20:48:42.561Z,7.00
2023-04-26T20:51:50.252Z,7.90
2023-04-26T20:54:58.604Z,7.10
2023-04-26T20:58:06.006Z,9.70
2023-04-26T21:01:14.029Z,8.40
2023-04-26T21:04:23.340Z,6.10
2023-04-26T21:07:30.746Z,6.30
2023-04-26T21:14:46.242Z,10.90
2023-04-26T21:17:55.782Z,13.30
2023-04-26T21:21:03.046Z,16.40
2023-04-26T21:24:10.770Z,12.10
2023-04-26T21:27:19.982Z,13.80
2023-04-26T21:30:27.237Z,33.70
2023-04-26T21:33:34.777Z,15.10
2023-04-26T21:36:44.008Z,11.60
2023-04-26T21:39:51.524Z,9.00
2023-04-26T21:43:05.160Z,7.30
2023-04-26T21:46:04.143Z,8.00
2023-04-26T21:49:12.146Z,7.90
2023-04-26T21:52:20.880Z,7.30
2023-04-26T21:55:31.281Z,8.40
2023-04-26T21:58:38.944Z,7.90
2023-04-26T22:01:46.981Z,6.60
2023-04-26T22:04:55.014Z,9.70
2023-04-26T22:08:04.267Z,7.80
2023-04-26T22:11:12.336Z,10.20
2023-04-26T22:14:21.033Z,6.80
2023-04-26T22:17:30.721Z,7.20
2023-04-26T22:20:38.343Z,8.10
2023-04-26T22:23:46.535Z,7.70
2023-04-26T22:26:55.943Z,8.10
2023-04-26T22:30:20.300Z,7.40
2023-04-26T22:33:09.093Z,6.30
2023-04-26T22:36:18.711Z,5.70
2023-04-26T22:39:26.603Z,6.30
2023-04-26T22:42:34.195Z,6.40
2023-04-26T22:45:42.412Z,9.30
2023-04-26T22:48:51.831Z,7.90
2023-04-26T22:52:09.426Z,7.60
2023-04-26T22:55:04.213Z,7.50
2023-04-26T22:58:13.621Z,6.20
2023-04-26T23:01:21.508Z,7.40
2023-04-26T23:04:29.957Z,7.30
2023-04-26T23:07:39.015Z,9.40
2023-04-26T23:10:47.323Z,6.80
2023-04-26T23:13:55.242Z,10.80
2023-04-26T23:17:04.725Z,7.80
2023-04-26T23:20:12.564Z,7.60
2023-04-26T23:23:20.549Z,7.70
2023-04-26T23:26:29.226Z,9.50
2023-04-26T23:29:37.238Z,8.40
2023-04-26T23:32:44.989Z,7.60
2023-04-26T23:35:52.787Z,10.80
2023-04-26T23:39:01.657Z,7.20
2023-04-26T23:42:09.584Z,8.10
2023-04-26T23:45:17.788Z,6.60
2023-04-26T23:48:27.056Z,7.30
2023-04-26T23:51:34.519Z,7.50
2023-04-26T23:54:42.203Z,8.70
2023-04-26T23:57:51.428Z,9.60
